Time;durP1;ratioP1;P1;durP2;ratioP2;P2;SDS_P1;SDS_P2;PMS_P1;PMS_P2;Temp;Humidity;BMP_temperature;BMP_pressure;BME280_temperature;BME280_humidity;BME280_pressure;Samples;Min_cycle;Max_cycle;Signal;HPM_P1;HPM_P2
2022/03/25 00:00:25;;;;;;;59.88;29.35;;;;;;;2.12;61.87;94963.03;1640913;85;21374;-50
2022/03/25 00:02:53;;;;;;;67.80;35.85;;;;;;;2.09;61.82;94967.89;1652627;84;21929;-50
2022/03/25 00:05:20;;;;;;;70.20;38.13;;;;;;;2.05;61.75;94977.18;1650356;85;21049;-50
2022/03/25 00:07:48;;;;;;;81.63;43.87;;;;;;;2.08;61.81;94970.41;1646882;84;21130;-49
2022/03/25 00:10:17;;;;;;;73.57;37.50;;;;;;;2.10;61.70;94970.80;1649617;85;21023;-49
2022/03/25 00:12:45;;;;;;;72.70;39.70;;;;;;;2.07;61.17;94978.35;1654968;84;21138;-49
2022/03/25 00:15:12;;;;;;;73.28;37.93;;;;;;;1.96;61.29;94976.80;1642553;84;22252;-49
2022/03/25 00:17:40;;;;;;;75.22;39.55;;;;;;;1.92;61.52;94974.67;1641389;84;21580;-50
2022/03/25 00:20:08;;;;;;;83.25;42.58;;;;;;;1.92;61.85;94963.83;1642656;85;21025;-49
2022/03/25 00:22:36;;;;;;;62.10;31.77;;;;;;;1.95;62.04;94963.05;1649960;85;21042;-48
2022/03/25 00:25:06;;;;;;;52.53;28.07;;;;;;;1.98;62.15;94959.55;1651694;84;21061;-49
2022/03/25 00:27:33;;;;;;;72.87;38.95;;;;;;;1.91;62.45;94959.53;1640809;85;21154;-49
2022/03/25 00:30:01;;;;;;;72.92;36.15;;;;;;;1.82;62.40;94958.59;1645123;85;21108;-50
2022/03/25 00:32:29;;;;;;;76.72;40.03;;;;;;;1.77;62.29;94962.25;1647800;83;20985;-49
2022/03/25 00:34:56;;;;;;;70.62;38.30;;;;;;;1.71;62.38;94958.95;1664524;84;21519;-49
2022/03/25 00:37:25;;;;;;;77.65;39.90;;;;;;;1.72;62.47;94955.84;1647900;84;21056;-50
2022/03/25 00:39:53;;;;;;;74.50;37.75;;;;;;;1.74;62.58;94956.25;1643016;85;21264;-49
2022/03/25 00:42:21;;;;;;;80.50;38.50;;;;;;;1.74;62.61;94940.74;1642423;84;21543;-51
2022/03/25 00:44:49;;;;;;;72.72;38.88;;;;;;;1.76;62.85;94939.02;1662073;83;21032;-50
2022/03/25 00:47:16;;;;;;;69.17;35.50;;;;;;;1.69;62.92;94938.98;1667471;84;21464;-50
2022/03/25 00:49:43;;;;;;;72.17;37.93;;;;;;;1.64;63.16;94938.02;1659815;84;21573;-50
2022/03/25 00:52:11;;;;;;;74.53;38.50;;;;;;;1.68;63.27;94925.83;1651690;84;21210;-49
2022/03/25 00:54:38;;;;;;;67.45;34.45;;;;;;;1.66;63.18;94930.27;1642761;84;20987;-51
2022/03/25 00:57:07;;;;;;;66.20;34.63;;;;;;;1.61;63.26;94925.80;1657790;84;21007;-48
2022/03/25 00:59:34;;;;;;;58.35;33.70;;;;;;;1.56;63.47;94914.78;1663665;85;20996;-49
2022/03/25 01:02:03;;;;;;;71.37;37.28;;;;;;;1.56;63.51;94914.00;1645601;84;21087;-50
2022/03/25 01:04:30;;;;;;;64.42;35.03;;;;;;;1.51;63.66;94911.08;1673390;84;21191;-51
2022/03/25 01:06:59;;;;;;;74.35;36.75;;;;;;;1.47;63.91;94908.19;1658605;84;21161;-53
2022/03/25 01:09:27;;;;;;;64.30;32.90;;;;;;;1.38;63.78;94911.27;1649031;85;21575;-49
2022/03/25 01:11:54;;;;;;;71.97;33.75;;;;;;;1.36;63.99;94904.67;1642107;86;21030;-49
2022/03/25 01:14:22;;;;;;;71.35;33.15;;;;;;;1.37;64.01;94899.45;1635190;85;20959;-49
2022/03/25 01:16:50;;;;;;;70.03;33.33;;;;;;;1.37;64.14;94904.30;1629825;86;21162;-50
2022/03/25 01:19:19;;;;;;;81.65;35.83;;;;;;;1.40;64.34;94906.80;1635377;86;20987;-49
2022/03/25 01:21:48;;;;;;;89.22;38.42;;;;;;;1.43;64.18;94900.05;1625744;86;21157;-50
2022/03/25 01:24:16;;;;;;;64.58;31.52;;;;;;;1.38;64.10;94897.72;1611719;88;21142;-50
2022/03/25 01:26:44;;;;;;;78.25;35.88;;;;;;;1.34;64.16;94896.92;1611487;86;21715;-51
2022/03/25 01:29:12;;;;;;;76.15;35.45;;;;;;;1.32;64.17;94895.17;1612651;87;21217;-51
2022/03/25 01:31:41;;;;;;;102.60;44.40;;;;;;;1.32;64.30;94900.59;1609462;88;21204;-50
2022/03/25 01:34:09;;;;;;;83.00;38.88;;;;;;;1.33;64.56;94902.14;1599875;86;21546;-50
2022/03/25 01:36:37;;;;;;;125.62;48.42;;;;;;;1.34;64.70;94900.22;1651831;85;21182;-48
2022/03/25 01:39:05;;;;;;;102.75;45.23;;;;;;;1.35;64.63;94901.77;1660648;85;21706;-49
2022/03/25 01:41:32;;;;;;;82.25;36.63;;;;;;;1.38;64.69;94905.85;1653553;85;21158;-50
2022/03/25 01:44:00;;;;;;;85.28;36.88;;;;;;;1.41;64.53;94903.72;1657608;85;21085;-50
2022/03/25 01:46:28;;;;;;;89.50;39.27;;;;;;;1.44;64.74;94904.87;1659539;84;21069;-47
2022/03/25 01:48:56;;;;;;;100.67;42.80;;;;;;;1.48;64.63;94899.66;1660443;84;20988;-50
2022/03/25 01:51:33;;;;;;;72.90;33.67;;;;;;;1.52;64.51;94902.37;1643951;84;20997;-50
2022/03/25 01:54:07;;;;;;;57.25;28.38;;;;;;;1.54;64.30;94911.66;1663742;85;21196;-49
2022/03/25 01:56:35;;;;;;;52.62;26.90;;;;;;;1.48;64.24;94903.72;1634849;84;21567;-50
2022/03/25 01:59:05;;;;;;;51.85;26.45;;;;;;;1.48;64.37;94897.55;1657842;85;21635;-50
2022/03/25 02:01:33;;;;;;;74.72;33.38;;;;;;;1.51;64.28;94897.53;1645970;84;21045;-51
2022/03/25 02:04:01;;;;;;;76.12;37.60;;;;;;;1.53;64.33;94895.20;1664400;84;21089;-50
2022/03/25 02:06:30;;;;;;;90.17;41.00;;;;;;;1.51;64.58;94899.48;1656453;85;21254;-49
2022/03/25 02:08:57;;;;;;;79.75;34.85;;;;;;;1.45;64.98;94895.02;1649053;85;21258;-50
2022/03/25 02:11:28;;;;;;;70.45;32.78;;;;;;;1.51;65.15;94891.34;1665887;84;21019;-51
2022/03/25 02:13:55;;;;;;;73.50;36.70;;;;;;;1.55;64.81;94892.12;1662319;85;20983;-51
2022/03/25 02:16:38;;;;;;;61.10;32.55;;;;;;;1.47;64.75;94891.33;1657142;84;21059;-50
2022/03/25 02:19:10;;;;;;;;;;;;;;;1.48;64.92;94880.69;1677147;84;21005;-50
2022/03/25 02:21:40;;;;;;;52.27;26.48;;;;;;;1.50;64.74;94890.55;1654592;85;20144;-52
2022/03/25 02:24:09;;;;;;;73.42;33.55;;;;;;;1.45;64.75;94884.17;1646237;85;21553;-50
2022/03/25 02:26:38;;;;;;;92.88;38.48;;;;;;;1.49;65.05;94889.01;1645433;84;21002;-51
2022/03/25 02:29:10;;;;;;;93.58;43.15;;;;;;;1.53;64.94;94887.06;1619864;84;21140;-50
2022/03/25 02:31:37;;;;;;;74.32;35.43;;;;;;;1.55;64.83;94881.27;1658984;85;21179;-51
2022/03/25 02:34:08;;;;;;;59.93;30.10;;;;;;;1.57;64.68;94883.80;1631698;85;20985;-54
2022/03/25 02:36:37;;;;;;;80.77;37.73;;;;;;;1.53;64.36;94886.31;1640541;85;21636;-50
2022/03/25 02:39:06;;;;;;;63.20;30.77;;;;;;;1.44;64.48;94885.33;1651127;84;21040;-51
2022/03/25 02:41:33;;;;;;;73.97;37.25;;;;;;;1.33;64.67;94891.30;1636904;86;21576;-50
2022/03/25 02:44:01;;;;;;;76.28;37.17;;;;;;;1.27;64.99;94880.66;1662158;85;21203;-52
2022/03/25 02:46:28;;;;;;;67.47;33.42;;;;;;;1.22;65.35;94874.27;1673685;84;20980;-50
2022/03/25 02:48:56;;;;;;;66.45;33.30;;;;;;;1.19;65.58;94879.11;1641708;84;20998;-49
2022/03/25 02:51:23;;;;;;;60.70;30.00;;;;;;;1.12;65.66;94883.14;1641947;85;21149;-50
2022/03/25 02:53:51;;;;;;;75.32;36.70;;;;;;;1.08;65.54;94885.06;1654855;84;21123;-50
2022/03/25 02:56:18;;;;;;;86.15;35.45;;;;;;;1.04;65.83;94884.86;1646486;84;21982;-49
2022/03/25 02:58:46;;;;;;;73.85;36.48;;;;;;;1.04;65.93;94881.59;1660831;84;20990;-50
2022/03/25 03:01:13;;;;;;;60.95;32.03;;;;;;;1.06;66.09;94877.91;1644196;84;21051;-51
2022/03/25 03:03:41;;;;;;;54.15;28.98;;;;;;;1.17;66.18;94882.75;1644870;84;21081;-52
2022/03/25 03:06:08;;;;;;;59.38;31.40;;;;;;;1.24;66.16;94890.12;1656756;84;21012;-49
2022/03/25 03:08:36;;;;;;;64.05;32.15;;;;;;;1.26;65.85;94881.82;1654687;84;21449;-50
2022/03/25 03:11:05;;;;;;;63.68;33.25;;;;;;;1.28;65.73;94880.85;1645060;85;21156;-50
2022/03/25 03:13:32;;;;;;;59.30;31.27;;;;;;;1.23;65.82;94889.93;1647961;85;21055;-51
2022/03/25 03:16:00;;;;;;;78.62;38.80;;;;;;;1.20;65.99;94892.06;1663824;85;21068;-50
2022/03/25 03:18:27;;;;;;;100.05;45.38;;;;;;;1.22;66.08;94887.03;1651215;84;20993;-51
2022/03/25 03:20:56;;;;;;;125.67;51.73;;;;;;;1.27;66.11;94876.59;1653355;84;21143;-50
2022/03/25 03:23:23;;;;;;;236.45;86.67;;;;;;;1.31;66.06;94874.66;1621754;85;21528;-51
2022/03/25 03:25:50;;;;;;;163.30;66.00;;;;;;;1.25;65.99;94887.05;1651245;85;21073;-51
2022/03/25 03:28:18;;;;;;;121.07;51.13;;;;;;;1.17;66.23;94875.98;1645600;85;21021;-50
2022/03/25 03:30:46;;;;;;;126.95;55.40;;;;;;;1.17;66.33;94883.35;1651191;85;21030;-51
2022/03/25 03:33:14;;;;;;;129.60;53.33;;;;;;;1.20;66.40;94872.53;1646799;85;21441;-49
2022/03/25 03:35:42;;;;;;;150.70;61.92;;;;;;;1.24;66.15;94865.17;1646499;84;21018;-51
2022/03/25 03:38:09;;;;;;;143.52;61.90;;;;;;;1.18;66.28;94873.47;1654853;84;21080;-51
2022/03/25 03:40:37;;;;;;;131.12;59.77;;;;;;;1.12;66.27;94868.23;1651649;84;21124;-51
2022/03/25 03:43:05;;;;;;;113.37;52.60;;;;;;;1.11;66.33;94868.05;1651646;85;21128;-50
2022/03/25 03:45:33;;;;;;;110.95;51.00;;;;;;;1.06;66.30;94865.72;1665085;84;21246;-50
2022/03/25 03:48:00;;;;;;;120.40;56.10;;;;;;;0.99;66.41;94867.04;1648037;84;21102;-50
2022/03/25 03:50:27;;;;;;;126.60;55.25;;;;;;;0.91;66.38;94863.34;1650666;85;20977;-51
2022/03/25 03:52:56;;;;;;;137.37;59.88;;;;;;;0.88;66.67;94860.05;1643262;84;21450;-50
2022/03/25 03:55:23;;;;;;;121.50;54.90;;;;;;;0.89;66.69;94868.36;1641113;84;20981;-50
2022/03/25 03:57:50;;;;;;;112.90;51.45;;;;;;;0.85;66.76;94862.17;1660959;84;21093;-50
2022/03/25 04:00:18;;;;;;;129.93;57.73;;;;;;;0.83;66.74;94856.37;1638745;85;21199;-51
2022/03/25 04:02:45;;;;;;;130.60;58.90;;;;;;;0.74;66.91;94860.03;1646701;84;20983;-51
2022/03/25 04:05:12;;;;;;;128.55;57.33;;;;;;;0.64;67.08;94860.19;1642391;84;21506;-50
2022/03/25 04:07:46;;;;;;;132.30;62.13;;;;;;;0.61;67.14;94861.52;1642447;83;21041;-53
2022/03/25 04:10:15;;;;;;;140.43;65.30;;;;;;;0.61;67.31;94862.88;1660259;84;21199;-51
2022/03/25 04:12:42;;;;;;;138.57;64.55;;;;;;;0.67;67.57;94861.34;1657562;84;20972;-52
2022/03/25 04:15:11;;;;;;;126.50;57.08;;;;;;;0.69;67.31;94857.67;1649732;85;21018;-50
2022/03/25 04:17:41;;;;;;;114.95;54.30;;;;;;;0.65;67.25;94853.62;1665564;84;20995;-51
2022/03/25 04:20:18;;;;;;;141.20;65.90;;;;;;;0.64;67.39;94853.42;1662995;84;21023;-49
2022/03/25 04:22:44;;;;;;;190.12;86.87;;;;;;;0.63;67.26;94849.13;1651155;85;22097;-50
2022/03/25 04:25:13;;;;;;;206.28;94.58;;;;;;;0.62;67.67;94855.70;1662825;84;21072;-51
2022/03/25 04:27:51;;;;;;;302.75;123.50;;;;;;;0.72;67.72;94859.05;1657745;85;21050;-51
2022/03/25 04:30:25;;;;;;;332.73;129.75;;;;;;;0.74;67.62;94862.73;1642693;85;20972;-51
2022/03/25 04:32:52;;;;;;;334.35;130.27;;;;;;;0.74;67.53;94856.73;1651044;84;21161;-52
2022/03/25 04:35:20;;;;;;;282.98;113.65;;;;;;;0.76;67.57;94859.06;1660329;84;22100;-50
2022/03/25 04:37:47;;;;;;;227.20;96.65;;;;;;;0.77;67.76;94858.66;1642900;84;21018;-50
2022/03/25 04:40:22;;;;;;;219.43;96.20;;;;;;;0.80;68.07;94856.54;1635321;85;21074;-52
2022/03/25 04:42:48;;;;;;;237.80;105.95;;;;;;;0.82;67.89;94861.02;1636910;85;21020;-50
2022/03/25 04:45:16;;;;;;;259.95;112.32;;;;;;;0.76;67.82;94856.36;1659450;84;21054;-51
2022/03/25 04:47:43;;;;;;;280.35;119.20;;;;;;;0.69;68.01;94853.61;1664121;84;21984;-51
2022/03/25 04:50:12;;;;;;;249.70;114.20;;;;;;;0.67;68.07;94853.22;1650988;85;21440;-51
2022/03/25 04:52:39;;;;;;;148.87;68.62;;;;;;;0.67;68.29;94852.66;1647585;84;21033;-51
2022/03/25 04:55:11;;;;;;;236.68;109.35;;;;;;;0.71;68.49;94852.64;1638187;86;21034;-50
2022/03/25 04:57:41;;;;;;;253.60;113.35;;;;;;;0.77;68.37;94860.61;1633799;85;21026;-51
2022/03/25 05:00:10;;;;;;;254.05;119.33;;;;;;;0.81;68.41;94855.38;1643924;86;21805;-50
2022/03/25 05:02:38;;;;;;;297.02;133.85;;;;;;;0.85;68.36;94855.41;1602712;86;21503;-51
2022/03/25 05:05:07;;;;;;;265.23;121.28;;;;;;;0.81;68.49;94862.16;1608154;87;21014;-51
2022/03/25 05:07:34;;;;;;;240.22;113.03;;;;;;;0.78;68.76;94856.75;1619893;86;21559;-50
2022/03/25 05:10:03;;;;;;;233.23;105.83;;;;;;;0.84;69.01;94864.69;1598284;88;21097;-50
2022/03/25 05:12:32;;;;;;;234.92;111.05;;;;;;;0.97;68.92;94865.30;1599827;86;21024;-51
2022/03/25 05:15:00;;;;;;;230.90;108.70;;;;;;;1.11;68.63;94866.69;1602695;87;21085;-51
2022/03/25 05:17:27;;;;;;;229.25;107.40;;;;;;;1.24;68.69;94857.61;1608164;87;21007;-50
2022/03/25 05:19:54;;;;;;;192.35;94.28;;;;;;;1.41;68.22;94849.52;1603049;88;21471;-50
2022/03/25 05:22:23;;;;;;;211.30;101.62;;;;;;;1.50;67.97;94860.74;1592405;88;21525;-51
2022/03/25 05:24:51;;;;;;;203.07;101.05;;;;;;;1.56;67.92;94856.50;1561302;88;21245;-50
2022/03/25 05:27:18;;;;;;;217.65;103.95;;;;;;;1.68;67.79;94853.38;1662857;84;21021;-52
2022/03/25 05:29:46;;;;;;;218.50;101.90;;;;;;;1.85;67.38;94850.68;1631616;85;20992;-50
2022/03/25 05:32:13;;;;;;;112.92;66.42;;;;;;;1.97;67.01;94853.57;1642328;84;21067;-50
2022/03/25 05:34:42;;;;;;;151.37;77.32;;;;;;;2.10;66.98;94855.48;1661192;84;21094;-51
2022/03/25 05:37:09;;;;;;;154.27;77.60;;;;;;;2.31;66.76;94856.03;1638298;85;21195;-49
2022/03/25 05:39:36;;;;;;;134.52;74.58;;;;;;;2.53;66.40;94854.80;1657165;84;20994;-50
2022/03/25 05:42:05;;;;;;;112.80;59.63;;;;;;;2.68;66.02;94842.72;1667446;84;21559;-49
2022/03/25 05:44:33;;;;;;;76.25;46.65;;;;;;;2.86;65.56;94837.98;1647550;84;20991;-53
2022/03/25 05:47:01;;;;;;;45.28;27.58;;;;;;;3.11;64.90;94850.84;1637934;85;21572;-54
2022/03/25 05:49:29;;;;;;;32.17;18.32;;;;;;;3.39;63.77;94847.97;1664708;84;21159;-54
2022/03/25 05:51:56;;;;;;;32.53;18.80;;;;;;;3.65;62.07;94847.56;1651944;84;21401;-48
2022/03/25 05:54:24;;;;;;;44.60;30.82;;;;;;;3.93;61.37;94846.56;1646234;85;21037;-50
2022/03/25 05:56:51;;;;;;;41.88;26.12;;;;;;;4.15;60.41;94839.16;1652000;84;21194;-51
2022/03/25 05:59:19;;;;;;;44.38;27.48;;;;;;;4.39;59.38;94848.27;1667300;84;21408;-51
2022/03/25 06:01:47;;;;;;;33.23;19.62;;;;;;;4.59;58.59;94854.06;1664851;84;21199;-50
2022/03/25 06:04:16;;;;;;;36.13;21.80;;;;;;;4.78;57.52;94845.88;1652930;84;21018;-52
2022/03/25 06:06:43;;;;;;;29.25;16.48;;;;;;;4.95;57.35;94842.92;1651857;85;21030;-51
2022/03/25 06:09:10;;;;;;;34.03;16.48;;;;;;;5.08;56.43;94833.03;1652653;84;21049;-51
2022/03/25 06:11:38;;;;;;;33.85;18.95;;;;;;;5.20;54.91;94843.39;1667587;84;21070;-52
2022/03/25 06:14:05;;;;;;;42.90;20.52;;;;;;;5.31;53.23;94841.27;1660483;84;21101;-49
2022/03/25 06:16:33;;;;;;;34.48;16.93;;;;;;;5.42;53.26;94847.36;1644334;85;20974;-51
2022/03/25 06:19:02;;;;;;;24.07;14.35;;;;;;;5.50;52.93;94844.70;1671507;84;21035;-50
2022/03/25 06:21:29;;;;;;;23.40;13.28;;;;;;;5.56;52.22;94847.13;1661900;84;21621;-51
2022/03/25 06:23:58;;;;;;;47.03;18.40;;;;;;;5.60;50.24;94864.25;1655524;85;21089;-50
2022/03/25 06:26:26;;;;;;;24.72;15.65;;;;;;;5.60;50.60;94860.16;1656495;84;22505;-52
2022/03/25 06:28:54;;;;;;;35.55;19.25;;;;;;;5.63;48.27;94859.33;1660592;85;21051;-51
2022/03/25 06:31:21;;;;;;;23.02;15.23;;;;;;;5.67;48.27;94865.50;1658228;84;21102;-50
2022/03/25 06:33:49;;;;;;;26.12;17.70;;;;;;;5.72;48.38;94865.03;1666359;85;21082;-52
2022/03/25 06:36:17;;;;;;;37.58;16.82;;;;;;;5.78;46.69;94875.09;1670728;84;21199;-51
2022/03/25 06:38:44;;;;;;;24.05;15.32;;;;;;;5.89;45.68;94879.03;1652406;84;21191;-52
2022/03/25 06:41:11;;;;;;;30.72;16.15;;;;;;;5.95;44.36;94871.33;1664280;85;21519;-51
2022/03/25 06:43:39;;;;;;;29.63;17.67;;;;;;;5.99;45.38;94879.47;1638113;84;21141;-50
2022/03/25 06:46:06;;;;;;;21.65;14.68;;;;;;;6.06;45.17;94887.53;1648842;84;21593;-52
2022/03/25 06:48:35;;;;;;;25.17;15.80;;;;;;;6.16;44.80;94883.88;1661115;84;21009;-52
2022/03/25 06:51:04;;;;;;;24.05;17.37;;;;;;;6.24;44.94;94891.54;1635598;85;21807;-54
2022/03/25 06:53:33;;;;;;;27.40;16.25;;;;;;;6.29;45.04;94891.05;1660495;85;21523;-55
2022/03/25 06:56:01;;;;;;;16.73;12.78;;;;;;;6.34;45.14;94893.30;1655155;85;21589;-53
2022/03/25 06:58:30;;;;;;;28.35;17.80;;;;;;;6.40;44.65;94891.66;1648687;84;21831;-55
2022/03/25 07:00:58;;;;;;;25.30;15.08;;;;;;;6.48;44.76;94887.60;1643936;84;20994;-54
2022/03/25 07:03:27;;;;;;;20.02;12.98;;;;;;;6.55;44.88;94900.38;1649283;84;21149;-52
2022/03/25 07:05:54;;;;;;;26.17;13.05;;;;;;;6.62;44.97;94898.87;1649989;84;21699;-59
2022/03/25 07:08:22;;;;;;;51.73;42.55;;;;;;;6.67;44.99;94901.14;1642756;85;21087;-56
2022/03/25 07:10:52;;;;;;;61.65;55.15;;;;;;;6.67;44.90;94910.71;1657341;84;21106;-52
2022/03/25 07:13:20;;;;;;;35.65;27.80;;;;;;;6.71;44.99;94910.05;1648340;85;21113;-56
2022/03/25 07:15:48;;;;;;;26.25;17.95;;;;;;;6.81;45.06;94905.75;1635555;84;21233;-58
2022/03/25 07:18:17;;;;;;;33.80;24.90;;;;;;;6.89;45.21;94911.25;1657042;84;20988;-54
2022/03/25 07:20:44;;;;;;;27.50;17.07;;;;;;;7.00;45.06;94919.25;1651838;85;21128;-55
2022/03/25 07:23:15;;;;;;;27.98;19.80;;;;;;;7.08;45.03;94916.57;1641597;84;21944;-53
2022/03/25 07:25:45;;;;;;;27.40;14.95;;;;;;;7.19;44.93;94910.45;1656625;84;21089;-53
2022/03/25 07:28:13;;;;;;;15.75;12.23;;;;;;;7.29;44.46;94912.80;1646156;84;21114;-53
2022/03/25 07:30:41;;;;;;;24.00;14.47;;;;;;;7.34;44.14;94913.09;1644219;85;21642;-51
2022/03/25 07:33:08;;;;;;;20.05;11.40;;;;;;;7.28;44.43;94922.98;1660060;84;21380;-52
2022/03/25 07:35:37;;;;;;;17.95;11.10;;;;;;;7.28;44.52;94920.25;1656502;85;21125;-56
2022/03/25 07:38:08;;;;;;;19.82;12.93;;;;;;;7.34;44.29;94924.64;1660442;84;21114;-54
2022/03/25 07:40:37;;;;;;;20.45;13.30;;;;;;;7.40;44.60;94924.31;1649931;85;21154;-55
2022/03/25 07:43:06;;;;;;;24.72;14.80;;;;;;;7.45;43.79;94924.59;1642467;84;21494;-57
2022/03/25 07:45:33;;;;;;;22.02;12.40;;;;;;;7.44;43.98;94929.89;1646508;84;21067;-55
2022/03/25 07:48:01;;;;;;;19.70;12.85;;;;;;;7.46;43.58;94939.82;1652607;84;21114;-52
2022/03/25 07:50:31;;;;;;;19.42;12.00;;;;;;;7.51;43.95;94949.52;1640035;85;21598;-55
2022/03/25 07:52:58;;;;;;;18.12;12.55;;;;;;;7.53;44.07;94956.09;1657593;84;21152;-54
2022/03/25 07:55:25;;;;;;;30.50;16.02;;;;;;;7.49;43.54;94952.66;1653820;85;22267;-53
2022/03/25 07:57:56;;;;;;;40.38;15.35;;;;;;;7.49;43.15;94978.66;1658325;84;21079;-56
2022/03/25 08:00:24;;;;;;;28.02;13.38;;;;;;;7.49;43.56;94968.33;1658408;84;21142;-56
2022/03/25 08:02:53;;;;;;;22.10;12.58;;;;;;;7.41;42.82;94958.11;1642352;84;21598;-53
2022/03/25 08:05:21;;;;;;;23.98;14.55;;;;;;;7.34;43.84;94950.64;1655550;84;22072;-55
2022/03/25 08:07:54;;;;;;;19.95;12.65;;;;;;;7.31;43.90;94987.81;1658179;84;21109;-54
2022/03/25 08:10:28;;;;;;;18.07;13.22;;;;;;;7.26;43.27;94965.64;1640562;84;21112;-55
2022/03/25 08:12:58;;;;;;;15.50;11.70;;;;;;;7.21;43.60;94958.71;1658734;84;21053;-60
2022/03/25 08:15:29;;;;;;;18.07;12.45;;;;;;;7.23;43.30;94956.33;1664838;84;21080;-54
2022/03/25 08:18:01;;;;;;;17.27;11.75;;;;;;;7.29;43.54;94953.27;1660578;84;21175;-60
2022/03/25 08:20:37;;;;;;;30.15;15.83;;;;;;;7.40;43.24;94964.00;1664492;84;21056;-55
2022/03/25 08:23:06;;;;;;;20.90;13.13;;;;;;;7.54;43.27;94972.69;1650302;84;21587;-56
2022/03/25 08:28:20;;;;;;;19.73;13.25;;;;;;;7.86;43.68;94962.47;1627675;85;21247;-55
2022/03/25 08:30:49;;;;;;;33.33;17.30;;;;;;;7.93;42.67;94958.98;1663912;84;21106;-53
2022/03/25 08:33:17;;;;;;;30.70;16.73;;;;;;;7.98;43.07;94954.36;1640918;85;21520;-55
2022/03/25 08:35:47;;;;;;;28.98;16.55;;;;;;;8.17;43.24;94961.75;1649771;83;21064;-54
2022/03/25 08:38:14;;;;;;;22.55;15.35;;;;;;;8.46;43.56;94942.08;1657836;85;21102;-54
2022/03/25 08:40:42;;;;;;;31.85;15.20;;;;;;;8.67;42.06;94984.69;1647116;85;21051;-54
2022/03/25 08:43:10;;;;;;;22.77;14.47;;;;;;;8.75;41.89;94966.84;1653807;85;21152;-55
2022/03/25 08:45:38;;;;;;;21.68;14.60;;;;;;;8.84;42.86;94966.41;1662334;84;20948;-56
2022/03/25 08:48:08;;;;;;;41.25;15.90;;;;;;;8.93;41.61;94969.32;1654643;84;21060;-54
2022/03/25 08:50:37;;;;;;;25.57;14.53;;;;;;;8.94;41.22;94977.72;1644751;85;21039;-53
2022/03/25 08:53:06;;;;;;;28.35;16.75;;;;;;;8.96;41.42;94980.80;1655918;84;21518;-57
2022/03/25 08:55:33;;;;;;;45.90;15.45;;;;;;;8.99;41.48;94987.58;1642904;85;21606;-53
2022/03/25 08:58:00;;;;;;;20.32;13.18;;;;;;;8.96;40.61;94988.45;1651731;84;21495;-54
2022/03/25 09:00:28;;;;;;;40.33;15.20;;;;;;;8.84;40.32;94984.23;1662908;85;21023;-52
2022/03/25 09:02:56;;;;;;;27.75;16.82;;;;;;;8.71;41.01;94986.14;1659330;85;21280;-53
2022/03/25 09:05:24;;;;;;;28.95;15.63;;;;;;;8.64;41.01;94993.77;1655236;85;21068;-52
2022/03/25 09:07:51;;;;;;;22.98;13.68;;;;;;;8.67;41.53;95000.55;1653562;85;21110;-52
2022/03/25 09:10:19;;;;;;;29.27;15.68;;;;;;;8.75;41.55;95017.00;1656633;84;21096;-53
2022/03/25 09:12:47;;;;;;;23.90;15.75;;;;;;;8.76;41.13;94995.84;1654535;84;21042;-51
2022/03/25 09:15:15;;;;;;;22.98;15.43;;;;;;;8.76;42.10;95008.94;1638557;85;21434;-56
2022/03/25 09:17:45;;;;;;;32.88;18.85;;;;;;;8.77;42.34;95009.72;1647394;84;22163;-53
2022/03/25 09:20:14;;;;;;;49.00;16.87;;;;;;;8.76;41.49;95003.45;1654091;84;21163;-56
2022/03/25 09:22:43;;;;;;;36.20;18.00;;;;;;;8.82;42.45;95031.91;1651493;84;21171;-54
2022/03/25 09:25:11;;;;;;;26.27;14.90;;;;;;;8.74;41.70;95047.00;1657847;84;21533;-53
2022/03/25 09:27:39;;;;;;;40.55;16.40;;;;;;;8.64;42.13;95071.93;1650451;84;21036;-52
2022/03/25 09:30:09;;;;;;;33.38;18.25;;;;;;;8.51;42.69;95030.70;1644462;84;21028;-52
2022/03/25 09:32:37;;;;;;;25.55;16.60;;;;;;;8.41;43.41;95033.07;1646030;84;22014;-53
2022/03/25 09:35:13;;;;;;;33.80;18.05;;;;;;;8.47;43.07;95046.44;1640218;84;21171;-54
2022/03/25 09:37:44;;;;;;;24.18;15.88;;;;;;;8.61;42.88;95048.86;1654905;84;20982;-53
2022/03/25 09:40:18;;;;;;;27.87;15.93;;;;;;;8.88;43.14;95060.38;1652266;84;21573;-53
2022/03/25 09:42:46;;;;;;;24.55;17.15;;;;;;;9.11;42.34;95068.44;1644742;84;21569;-53
2022/03/25 09:45:18;;;;;;;30.80;19.27;;;;;;;9.21;41.21;95058.56;1640065;85;21168;-53
2022/03/25 09:47:46;;;;;;;27.70;18.95;;;;;;;9.25;41.04;95061.23;1660803;85;21430;-53
2022/03/25 09:50:17;;;;;;;24.12;17.30;;;;;;;9.36;41.20;95072.70;1658935;84;21023;-52
2022/03/25 09:52:46;;;;;;;24.57;17.23;;;;;;;9.33;40.54;95059.84;1648237;85;21106;-52
2022/03/25 09:55:15;;;;;;;24.72;16.97;;;;;;;9.25;40.44;95068.09;1662569;84;21081;-54
2022/03/25 09:57:43;;;;;;;29.50;18.80;;;;;;;9.20;40.76;95073.50;1653884;84;23713;-54
2022/03/25 10:00:17;;;;;;;26.87;19.75;;;;;;;9.35;40.05;95084.88;1648605;84;21197;-52
2022/03/25 10:02:46;;;;;;;31.15;19.80;;;;;;;9.33;39.46;95093.57;1654214;84;21053;-52
2022/03/25 10:05:20;;;;;;;32.63;23.98;;;;;;;9.09;40.28;95092.80;1659010;84;21035;-54
2022/03/25 10:07:57;;;;;;;35.95;22.60;;;;;;;8.91;40.68;95099.30;1635824;85;21593;-53
2022/03/25 10:10:28;;;;;;;36.40;21.30;;;;;;;8.90;40.62;95108.73;1656584;85;22271;-54
2022/03/25 10:13:04;;;;;;;30.52;23.07;;;;;;;8.79;41.12;95104.70;1639215;85;21168;-53
2022/03/25 10:15:37;;;;;;;32.98;21.25;;;;;;;8.60;41.63;95109.02;1647555;85;21104;-54
2022/03/25 10:18:08;;;;;;;26.33;19.27;;;;;;;8.68;41.93;95107.69;1634273;85;21100;-54
2022/03/25 10:20:41;;;;;;;29.77;18.20;;;;;;;8.75;41.33;95097.91;1647044;85;21575;-54
2022/03/25 10:23:17;;;;;;;28.67;18.37;;;;;;;8.87;40.97;95111.55;1647343;84;21063;-54
2022/03/25 10:25:56;;;;;;;27.10;19.25;;;;;;;8.95;40.65;95095.88;1673135;85;20978;-61
2022/03/25 10:28:29;;;;;;;34.15;19.45;;;;;;;9.02;40.66;95095.11;1659247;85;21467;-57
2022/03/25 10:31:05;;;;;;;25.05;17.50;;;;;;;8.96;40.46;95094.67;1657304;84;21140;-51
2022/03/25 10:33:50;;;;;;;26.55;16.50;;;;;;;8.86;41.23;95113.55;1653326;85;21144;-53
2022/03/25 10:36:21;;;;;;;22.25;16.12;;;;;;;9.10;40.98;95110.19;1655660;84;21300;-53
2022/03/25 10:39:00;;;;;;;21.55;16.77;;;;;;;9.37;40.86;95111.30;1641818;84;21006;-54
2022/03/25 10:41:40;;;;;;;25.12;18.05;;;;;;;9.58;40.65;95106.67;1608563;86;21066;-58
2022/03/25 10:44:10;;;;;;;28.47;20.70;;;;;;;9.84;39.47;95111.08;1591743;88;21432;-62
2022/03/25 10:46:42;;;;;;;26.25;16.95;;;;;;;10.24;39.04;95115.09;1610999;87;21504;-59
2022/03/25 10:49:13;;;;;;;26.75;15.80;;;;;;;10.63;38.80;95112.77;1638147;85;21238;-57
2022/03/25 10:51:53;;;;;;;27.73;16.07;;;;;;;11.29;38.54;95114.81;1604876;86;21145;-56
2022/03/25 10:54:28;;;;;;;31.27;20.27;;;;;;;12.12;38.29;95114.55;1613191;87;21089;-55
2022/03/25 10:56:57;;;;;;;21.55;15.83;;;;;;;13.07;35.68;95107.05;1614527;86;21121;-55
2022/03/25 10:59:34;;;;;;;22.10;14.73;;;;;;;13.79;34.35;95116.19;1621803;87;21204;-55
2022/03/25 11:02:04;;;;;;;20.92;14.70;;;;;;;13.84;33.36;95119.09;1658259;84;22025;-54
2022/03/25 11:04:31;;;;;;;20.05;15.08;;;;;;;13.77;33.89;95120.00;1663288;84;21545;-56
2022/03/25 11:07:01;;;;;;;20.12;14.53;;;;;;;13.86;33.27;95118.65;1659653;84;21103;-56
2022/03/25 11:09:30;;;;;;;20.37;15.15;;;;;;;14.46;33.11;95114.86;1649616;86;21077;-56
2022/03/25 11:11:58;;;;;;;17.42;13.28;;;;;;;14.88;32.01;95119.25;1645900;86;21548;-56
2022/03/25 11:14:27;;;;;;;17.70;12.90;;;;;;;15.34;31.21;95116.50;1645496;86;21081;-56
2022/03/25 11:16:59;;;;;;;21.33;15.72;;;;;;;15.75;31.25;95113.53;1627252;86;21092;-56
2022/03/25 11:19:30;;;;;;;19.62;14.83;;;;;;;16.30;30.56;95111.28;1641880;85;21137;-56
2022/03/25 11:21:58;;;;;;;23.98;15.38;;;;;;;16.98;27.53;95098.94;1651120;85;21620;-56
2022/03/25 11:24:48;;;;;;;19.65;14.18;;;;;;;17.03;27.98;95114.33;1675761;85;21081;-54
2022/03/25 11:27:22;;;;;;;22.02;14.80;;;;;;;16.82;26.88;95118.27;1661066;84;21155;-54
2022/03/25 11:29:53;;;;;;;32.40;24.27;;;;;;;16.49;28.15;95130.14;1648776;86;21346;-55
2022/03/25 11:32:21;;;;;;;22.05;16.27;;;;;;;16.60;28.15;95117.08;1650593;85;21067;-52